sensor_id;sensor_type;location;lat;lon;timestamp;pressure;altitude;pressure_sealevel;temperature;humidity
73429;BME280;61643;49.564;17.412;2024-03-06T00:02:19;98185.69;;;4.18;100.00
73429;BME280;61643;49.564;17.412;2024-03-06T00:04:45;98179.59;;;4.11;100.00
73429;BME280;61643;49.564;17.412;2024-03-06T00:07:11;98194.59;;;4.05;100.00
73429;BME280;61643;49.564;17.412;2024-03-06T00:09:37;98189.16;;;3.93;100.00
73429;BME280;61643;49.564;17.412;2024-03-06T00:12:03;98193.03;;;3.91;100.00
73429;BME280;61643;49.564;17.412;2024-03-06T00:14:30;98192.06;;;3.85;100.00
73429;BME280;61643;49.564;17.412;2024-03-06T00:16:55;98188.91;;;3.95;100.00
73429;BME280;61643;49.564;17.412;2024-03-06T00:19:22;98196.25;;;4.00;100.00
73429;BME280;61643;49.564;17.412;2024-03-06T00:21:48;98194.94;;;4.15;100.00
73429;BME280;61643;49.564;17.412;2024-03-06T00:24:15;98207.31;;;4.28;100.00
73429;BME280;61643;49.564;17.412;2024-03-06T00:26:44;98199.50;;;4.33;100.00
73429;BME280;61643;49.564;17.412;2024-03-06T00:29:10;98191.00;;;4.42;100.00
73429;BME280;61643;49.564;17.412;2024-03-06T00:31:37;98198.63;;;4.39;100.00
73429;BME280;61643;49.564;17.412;2024-03-06T00:34:08;98194.63;;;4.30;100.00
73429;BME280;61643;49.564;17.412;2024-03-06T00:36:34;98203.84;;;4.27;100.00
73429;BME280;61643;49.564;17.412;2024-03-06T00:39:00;98197.16;;;4.18;100.00
73429;BME280;61643;49.564;17.412;2024-03-06T00:41:26;98199.00;;;4.18;100.00
73429;BME280;61643;49.564;17.412;2024-03-06T00:43:52;98200.03;;;4.17;100.00
73429;BME280;61643;49.564;17.412;2024-03-06T00:46:18;98200.47;;;4.14;100.00
73429;BME280;61643;49.564;17.412;2024-03-06T00:48:44;98198.81;;;4.13;100.00
73429;BME280;61643;49.564;17.412;2024-03-06T00:51:10;98198.03;;;4.12;100.00
73429;BME280;61643;49.564;17.412;2024-03-06T00:53:36;98188.47;;;4.05;100.00
73429;BME280;61643;49.564;17.412;2024-03-06T00:56:02;98193.88;;;4.16;100.00
73429;BME280;61643;49.564;17.412;2024-03-06T00:58:28;98190.19;;;4.17;100.00
73429;BME280;61643;49.564;17.412;2024-03-06T01:00:54;98195.69;;;4.22;100.00
73429;BME280;61643;49.564;17.412;2024-03-06T01:03:21;98192.16;;;4.28;100.00
73429;BME280;61643;49.564;17.412;2024-03-06T01:05:46;98195.47;;;4.24;100.00
73429;BME280;61643;49.564;17.412;2024-03-06T01:08:12;98194.44;;;4.25;100.00
73429;BME280;61643;49.564;17.412;2024-03-06T01:10:39;98191.53;;;4.33;100.00
73429;BME280;61643;49.564;17.412;2024-03-06T01:13:05;98187.84;;;4.34;100.00
73429;BME280;61643;49.564;17.412;2024-03-06T01:15:31;98194.56;;;4.36;100.00
73429;BME280;61643;49.564;17.412;2024-03-06T01:17:57;98185.38;;;4.32;100.00
73429;BME280;61643;49.564;17.412;2024-03-06T01:20:23;98177.50;;;4.19;100.00
73429;BME280;61643;49.564;17.412;2024-03-06T01:22:49;98189.56;;;4.22;100.00
73429;BME280;61643;49.564;17.412;2024-03-06T01:25:15;98183.59;;;4.20;100.00
73429;BME280;61643;49.564;17.412;2024-03-06T01:27:41;98188.59;;;4.10;100.00
73429;BME280;61643;49.564;17.412;2024-03-06T01:30:07;98183.34;;;4.03;100.00
73429;BME280;61643;49.564;17.412;2024-03-06T01:32:33;98177.69;;;3.93;100.00
73429;BME280;61643;49.564;17.412;2024-03-06T01:34:59;98186.06;;;3.96;100.00
73429;BME280;61643;49.564;17.412;2024-03-06T01:37:25;98188.91;;;3.95;100.00
73429;BME280;61643;49.564;17.412;2024-03-06T01:39:51;98178.16;;;3.83;100.00
73429;BME280;61643;49.564;17.412;2024-03-06T01:42:17;98183.44;;;3.90;100.00
73429;BME280;61643;49.564;17.412;2024-03-06T01:44:44;98184.28;;;3.84;100.00
73429;BME280;61643;49.564;17.412;2024-03-06T01:47:09;98193.69;;;3.86;100.00
73429;BME280;61643;49.564;17.412;2024-03-06T01:49:35;98184.06;;;3.85;100.00
73429;BME280;61643;49.564;17.412;2024-03-06T01:52:02;98183.88;;;3.87;100.00
73429;BME280;61643;49.564;17.412;2024-03-06T01:54:29;98199.13;;;4.05;100.00
73429;BME280;61643;49.564;17.412;2024-03-06T01:56:57;98187.06;;;3.95;100.00
73429;BME280;61643;49.564;17.412;2024-03-06T01:59:26;98191.50;;;4.08;100.00
73429;BME280;61643;49.564;17.412;2024-03-06T02:01:53;98189.66;;;4.09;100.00
73429;BME280;61643;49.564;17.412;2024-03-06T02:04:19;98191.56;;;3.95;100.00
73429;BME280;61643;49.564;17.412;2024-03-06T02:06:46;98184.66;;;3.94;100.00
73429;BME280;61643;49.564;17.412;2024-03-06T02:09:12;98181.03;;;3.82;100.00
73429;BME280;61643;49.564;17.412;2024-03-06T02:11:40;98181.28;;;3.74;100.00
73429;BME280;61643;49.564;17.412;2024-03-06T02:14:07;98186.84;;;3.66;100.00
73429;BME280;61643;49.564;17.412;2024-03-06T02:16:38;98187.09;;;3.58;100.00
73429;BME280;61643;49.564;17.412;2024-03-06T02:19:05;98187.13;;;3.51;100.00
73429;BME280;61643;49.564;17.412;2024-03-06T02:21:31;98180.00;;;3.45;100.00
73429;BME280;61643;49.564;17.412;2024-03-06T02:23:57;98185.13;;;3.46;100.00
73429;BME280;61643;49.564;17.412;2024-03-06T02:26:24;98183.66;;;3.51;100.00
73429;BME280;61643;49.564;17.412;2024-03-06T02:28:51;98181.41;;;3.47;100.00
73429;BME280;61643;49.564;17.412;2024-03-06T02:31:17;98189.19;;;3.49;100.00
73429;BME280;61643;49.564;17.412;2024-03-06T02:33:44;98189.00;;;3.51;100.00
73429;BME280;61643;49.564;17.412;2024-03-06T02:36:11;98193.88;;;3.54;100.00
73429;BME280;61643;49.564;17.412;2024-03-06T02:38:37;98189.38;;;3.54;100.00
73429;BME280;61643;49.564;17.412;2024-03-06T02:41:03;98186.31;;;3.51;100.00
73429;BME280;61643;49.564;17.412;2024-03-06T02:43:29;98191.56;;;3.64;100.00
73429;BME280;61643;49.564;17.412;2024-03-06T02:45:55;98194.91;;;3.90;100.00
73429;BME280;61643;49.564;17.412;2024-03-06T02:48:21;98196.06;;;4.01;100.00
73429;BME280;61643;49.564;17.412;2024-03-06T02:50:47;98193.16;;;4.03;100.00
73429;BME280;61643;49.564;17.412;2024-03-06T02:53:14;98201.38;;;4.01;100.00
73429;BME280;61643;49.564;17.412;2024-03-06T02:55:40;98195.69;;;3.97;100.00
73429;BME280;61643;49.564;17.412;2024-03-06T02:58:06;98188.72;;;3.96;100.00
73429;BME280;61643;49.564;17.412;2024-03-06T03:00:32;98200.63;;;3.87;100.00
73429;BME280;61643;49.564;17.412;2024-03-06T03:02:58;98196.38;;;3.80;100.00
73429;BME280;61643;49.564;17.412;2024-03-06T03:05:24;98193.31;;;3.76;100.00
73429;BME280;61643;49.564;17.412;2024-03-06T03:07:50;98188.09;;;3.63;100.00
73429;BME280;61643;49.564;17.412;2024-03-06T03:10:17;98206.09;;;3.68;100.00
73429;BME280;61643;49.564;17.412;2024-03-06T03:12:43;98201.19;;;3.65;100.00
73429;BME280;61643;49.564;17.412;2024-03-06T03:15:09;98207.09;;;3.67;100.00
73429;BME280;61643;49.564;17.412;2024-03-06T03:17:35;98202.75;;;3.79;100.00
73429;BME280;61643;49.564;17.412;2024-03-06T03:20:04;98197.47;;;3.72;100.00
73429;BME280;61643;49.564;17.412;2024-03-06T03:22:37;98210.78;;;3.72;100.00
73429;BME280;61643;49.564;17.412;2024-03-06T03:25:07;98210.16;;;3.70;100.00
73429;BME280;61643;49.564;17.412;2024-03-06T03:27:33;98205.06;;;3.62;100.00
73429;BME280;61643;49.564;17.412;2024-03-06T03:29:59;98219.63;;;3.60;100.00
73429;BME280;61643;49.564;17.412;2024-03-06T03:32:25;98193.53;;;3.43;100.00
73429;BME280;61643;49.564;17.412;2024-03-06T03:34:51;98219.03;;;3.51;100.00
73429;BME280;61643;49.564;17.412;2024-03-06T03:37:17;98199.47;;;3.39;100.00
73429;BME280;61643;49.564;17.412;2024-03-06T03:39:45;98220.31;;;3.42;100.00
73429;BME280;61643;49.564;17.412;2024-03-06T03:42:11;98217.88;;;3.40;100.00
73429;BME280;61643;49.564;17.412;2024-03-06T03:44:37;98211.75;;;3.33;100.00
73429;BME280;61643;49.564;17.412;2024-03-06T03:47:03;98203.78;;;3.33;100.00
73429;BME280;61643;49.564;17.412;2024-03-06T03:49:29;98210.53;;;3.36;100.00
73429;BME280;61643;49.564;17.412;2024-03-06T03:51:55;98215.66;;;3.31;100.00
73429;BME280;61643;49.564;17.412;2024-03-06T03:54:21;98225.88;;;3.34;100.00
73429;BME280;61643;49.564;17.412;2024-03-06T03:56:47;98217.34;;;3.25;100.00
73429;BME280;61643;49.564;17.412;2024-03-06T03:59:14;98223.66;;;3.24;100.00
73429;BME280;61643;49.564;17.412;2024-03-06T04:01:40;98232.47;;;3.25;100.00
73429;BME280;61643;49.564;17.412;2024-03-06T04:04:06;98225.13;;;3.20;100.00
73429;BME280;61643;49.564;17.412;2024-03-06T04:06:34;98228.38;;;3.16;100.00
73429;BME280;61643;49.564;17.412;2024-03-06T04:08:59;98231.88;;;3.16;100.00
73429;BME280;61643;49.564;17.412;2024-03-06T04:11:26;98229.00;;;3.11;100.00
73429;BME280;61643;49.564;17.412;2024-03-06T04:13:52;98231.47;;;3.13;100.00
73429;BME280;61643;49.564;17.412;2024-03-06T04:16:18;98236.78;;;3.13;100.00
73429;BME280;61643;49.564;17.412;2024-03-06T04:18:44;98235.38;;;3.10;100.00
73429;BME280;61643;49.564;17.412;2024-03-06T04:21:11;98233.94;;;3.08;100.00
73429;BME280;61643;49.564;17.412;2024-03-06T04:23:37;98244.78;;;3.13;100.00
73429;BME280;61643;49.564;17.412;2024-03-06T04:26:03;98243.75;;;3.14;100.00
73429;BME280;61643;49.564;17.412;2024-03-06T04:28:29;98236.59;;;3.14;100.00
73429;BME280;61643;49.564;17.412;2024-03-06T04:30:55;98240.88;;;3.15;100.00
73429;BME280;61643;49.564;17.412;2024-03-06T04:33:21;98247.03;;;3.09;100.00
73429;BME280;61643;49.564;17.412;2024-03-06T04:35:47;98239.06;;;3.03;100.00
73429;BME280;61643;49.564;17.412;2024-03-06T04:38:13;98249.47;;;3.04;100.00
73429;BME280;61643;49.564;17.412;2024-03-06T04:40:39;98248.06;;;3.02;100.00
73429;BME280;61643;49.564;17.412;2024-03-06T04:43:05;98252.56;;;3.01;100.00
73429;BME280;61643;49.564;17.412;2024-03-06T04:45:33;98245.22;;;3.03;100.00
73429;BME280;61643;49.564;17.412;2024-03-06T04:47:59;98251.56;;;2.89;100.00
73429;BME280;61643;49.564;17.412;2024-03-06T04:50:25;98248.50;;;2.92;100.00
73429;BME280;61643;49.564;17.412;2024-03-06T04:52:51;98255.25;;;2.88;100.00
73429;BME280;61643;49.564;17.412;2024-03-06T04:55:17;98247.06;;;2.83;100.00
73429;BME280;61643;49.564;17.412;2024-03-06T04:57:48;98264.84;;;2.82;100.00
73429;BME280;61643;49.564;17.412;2024-03-06T05:00:15;98256.47;;;2.79;100.00
73429;BME280;61643;49.564;17.412;2024-03-06T05:02:41;98258.34;;;2.78;100.00
73429;BME280;61643;49.564;17.412;2024-03-06T05:05:08;98258.13;;;2.73;100.00
73429;BME280;61643;49.564;17.412;2024-03-06T05:07:34;98245.66;;;2.67;100.00
73429;BME280;61643;49.564;17.412;2024-03-06T05:10:00;98260.19;;;2.71;100.00
73429;BME280;61643;49.564;17.412;2024-03-06T05:12:26;98263.63;;;2.72;100.00
73429;BME280;61643;49.564;17.412;2024-03-06T05:14:53;98258.56;;;2.64;100.00
73429;BME280;61643;49.564;17.412;2024-03-06T05:17:20;98262.63;;;2.66;100.00
73429;BME280;61643;49.564;17.412;2024-03-06T05:19:47;98259.34;;;2.64;100.00
73429;BME280;61643;49.564;17.412;2024-03-06T05:22:15;98262.81;;;2.65;100.00
73429;BME280;61643;49.564;17.412;2024-03-06T05:24:42;98271.41;;;2.73;100.00
73429;BME280;61643;49.564;17.412;2024-03-06T05:27:08;98260.19;;;2.71;100.00
73429;BME280;61643;49.564;17.412;2024-03-06T05:29:36;98275.06;;;2.79;100.00
73429;BME280;61643;49.564;17.412;2024-03-06T05:32:03;98272.84;;;2.76;100.00
73429;BME280;61643;49.564;17.412;2024-03-06T05:34:29;98266.09;;;2.73;100.00
73429;BME280;61643;49.564;17.412;2024-03-06T05:36:58;98257.72;;;2.63;100.00
73429;BME280;61643;49.564;17.412;2024-03-06T05:39:24;98267.13;;;2.66;100.00
73429;BME280;61643;49.564;17.412;2024-03-06T05:41:50;98267.34;;;2.71;100.00
73429;BME280;61643;49.564;17.412;2024-03-06T05:44:15;98277.97;;;2.77;100.00
73429;BME280;61643;49.564;17.412;2024-03-06T05:46:41;98281.63;;;2.76;100.00
73429;BME280;61643;49.564;17.412;2024-03-06T05:49:07;98287.16;;;2.81;100.00
73429;BME280;61643;49.564;17.412;2024-03-06T05:51:33;98286.94;;;2.83;100.00
73429;BME280;61643;49.564;17.412;2024-03-06T05:53:59;98285.91;;;2.84;100.00
73429;BME280;61643;49.564;17.412;2024-03-06T05:56:25;98285.09;;;2.90;100.00
73429;BME280;61643;49.564;17.412;2024-03-06T05:58:51;98279.38;;;2.93;100.00
73429;BME280;61643;49.564;17.412;2024-03-06T06:01:17;98276.31;;;2.96;100.00
73429;BME280;61643;49.564;17.412;2024-03-06T06:03:47;98282.22;;;2.98;100.00
73429;BME280;61643;49.564;17.412;2024-03-06T06:06:17;98290.81;;;3.07;100.00
73429;BME280;61643;49.564;17.412;2024-03-06T06:08:46;98292.03;;;3.11;100.00
73429;BME280;61643;49.564;17.412;2024-03-06T06:11:12;98289.56;;;3.16;100.00
73429;BME280;61643;49.564;17.412;2024-03-06T06:13:39;98305.09;;;3.25;100.00
73429;BME280;61643;49.564;17.412;2024-03-06T06:16:06;98310.19;;;3.33;100.00
73429;BME280;61643;49.564;17.412;2024-03-06T06:18:32;98308.06;;;3.55;100.00
73429;BME280;61643;49.564;17.412;2024-03-06T06:20:59;98305.31;;;3.81;100.00
73429;BME280;61643;49.564;17.412;2024-03-06T06:23:25;98301.19;;;3.92;100.00
73429;BME280;61643;49.564;17.412;2024-03-06T06:25:51;98298.47;;;3.98;100.00
73429;BME280;61643;49.564;17.412;2024-03-06T06:28:17;98315.66;;;4.03;100.00
73429;BME280;61643;49.564;17.412;2024-03-06T06:30:43;98318.94;;;4.05;100.00
73429;BME280;61643;49.564;17.412;2024-03-06T06:33:09;98312.81;;;4.04;100.00
73429;BME280;61643;49.564;17.412;2024-03-06T06:35:35;98315.44;;;4.11;100.00
73429;BME280;61643;49.564;17.412;2024-03-06T06:38:02;98318.69;;;4.13;100.00
73429;BME280;61643;49.564;17.412;2024-03-06T06:40:28;98305.16;;;4.14;100.00
73429;BME280;61643;49.564;17.412;2024-03-06T06:42:54;98317.41;;;4.22;100.00
73429;BME280;61643;49.564;17.412;2024-03-06T06:45:20;98316.78;;;4.26;100.00
73429;BME280;61643;49.564;17.412;2024-03-06T06:47:48;98313.47;;;4.31;100.00
73429;BME280;61643;49.564;17.412;2024-03-06T06:50:15;98320.19;;;4.40;100.00
73429;BME280;61643;49.564;17.412;2024-03-06T06:52:41;98317.91;;;4.43;100.00
73429;BME280;61643;49.564;17.412;2024-03-06T06:55:07;98313.13;;;4.52;100.00
73429;BME280;61643;49.564;17.412;2024-03-06T06:57:37;98318.41;;;4.59;100.00
73429;BME280;61643;49.564;17.412;2024-03-06T07:00:04;98305.09;;;4.59;100.00
73429;BME280;61643;49.564;17.412;2024-03-06T07:02:42;98305.25;;;4.64;100.00
73429;BME280;61643;49.564;17.412;2024-03-06T07:05:09;98322.25;;;4.69;100.00
73429;BME280;61643;49.564;17.412;2024-03-06T07:07:35;98309.13;;;4.68;100.00
73429;BME280;61643;49.564;17.412;2024-03-06T07:10:02;98319.69;;;4.81;100.00
73429;BME280;61643;49.564;17.412;2024-03-06T07:12:29;98306.31;;;4.87;100.00
73429;BME280;61643;49.564;17.412;2024-03-06T07:14:55;98317.66;;;5.01;100.00
73429;BME280;61643;49.564;17.412;2024-03-06T07:17:21;98319.06;;;5.04;100.00
73429;BME280;61643;49.564;17.412;2024-03-06T07:19:47;98311.56;;;5.19;100.00
73429;BME280;61643;49.564;17.412;2024-03-06T07:22:13;98316.00;;;5.25;100.00
73429;BME280;61643;49.564;17.412;2024-03-06T07:24:39;98323.34;;;5.29;100.00
73429;BME280;61643;49.564;17.412;2024-03-06T07:27:05;98323.72;;;5.33;100.00
73429;BME280;61643;49.564;17.412;2024-03-06T07:29:31;98321.81;;;5.40;100.00
73429;BME280;61643;49.564;17.412;2024-03-06T07:31:57;98329.25;;;5.56;100.00
73429;BME280;61643;49.564;17.412;2024-03-06T07:34:23;98326.22;;;5.71;100.00
73429;BME280;61643;49.564;17.412;2024-03-06T07:36:49;98334.72;;;5.86;100.00
73429;BME280;61643;49.564;17.412;2024-03-06T07:39:15;98337.97;;;5.88;100.00
73429;BME280;61643;49.564;17.412;2024-03-06T07:41:41;98345.97;;;6.06;100.00
73429;BME280;61643;49.564;17.412;2024-03-06T07:44:08;98345.03;;;6.12;100.00
73429;BME280;61643;49.564;17.412;2024-03-06T07:46:34;98343.50;;;6.05;100.00
73429;BME280;61643;49.564;17.412;2024-03-06T07:49:01;98338.88;;;6.12;100.00
73429;BME280;61643;49.564;17.412;2024-03-06T07:51:29;98345.50;;;6.09;100.00
73429;BME280;61643;49.564;17.412;2024-03-06T07:53:58;98346.72;;;5.95;100.00
73429;BME280;61643;49.564;17.412;2024-03-06T07:56:25;98358.91;;;5.84;100.00
73429;BME280;61643;49.564;17.412;2024-03-06T07:58:51;98360.56;;;5.67;100.00
73429;BME280;61643;49.564;17.412;2024-03-06T08:01:17;98352.09;;;5.52;100.00
73429;BME280;61643;49.564;17.412;2024-03-06T08:03:43;98350.59;;;5.38;100.00
73429;BME280;61643;49.564;17.412;2024-03-06T08:06:10;98360.59;;;5.42;100.00
73429;BME280;61643;49.564;17.412;2024-03-06T08:08:36;98360.53;;;5.49;100.00
73429;BME280;61643;49.564;17.412;2024-03-06T08:11:05;98364.25;;;5.66;100.00
73429;BME280;61643;49.564;17.412;2024-03-06T08:13:31;98361.13;;;5.69;100.00
73429;BME280;61643;49.564;17.412;2024-03-06T08:15:57;98352.53;;;5.67;100.00
73429;BME280;61643;49.564;17.412;2024-03-06T08:18:23;98363.44;;;5.84;100.00
73429;BME280;61643;49.564;17.412;2024-03-06T08:20:49;98358.31;;;5.82;100.00
73429;BME280;61643;49.564;17.412;2024-03-06T08:23:15;98360.34;;;5.87;100.00
73429;BME280;61643;49.564;17.412;2024-03-06T08:25:41;98352.19;;;5.82;100.00
73429;BME280;61643;49.564;17.412;2024-03-06T08:28:07;98370.81;;;5.88;100.00
73429;BME280;61643;49.564;17.412;2024-03-06T08:30:33;98353.97;;;5.88;100.00
73429;BME280;61643;49.564;17.412;2024-03-06T08:32:59;98362.00;;;5.88;100.00
73429;BME280;61643;49.564;17.412;2024-03-06T08:35:25;98367.53;;;5.86;100.00
73429;BME280;61643;49.564;17.412;2024-03-06T08:37:51;98375.63;;;5.98;100.00
73429;BME280;61643;49.564;17.412;2024-03-06T08:40:17;98366.59;;;5.99;100.00
73429;BME280;61643;49.564;17.412;2024-03-06T08:42:43;98373.03;;;6.10;100.00
73429;BME280;61643;49.564;17.412;2024-03-06T08:45:10;98375.13;;;6.08;100.00
73429;BME280;61643;49.564;17.412;2024-03-06T08:47:36;98376.06;;;6.13;100.00
73429;BME280;61643;49.564;17.412;2024-03-06T08:50:03;98374.69;;;6.11;100.00
73429;BME280;61643;49.564;17.412;2024-03-06T08:52:29;98370.81;;;6.07;100.00
73429;BME280;61643;49.564;17.412;2024-03-06T08:54:58;98369.03;;;6.01;100.00
73429;BME280;61643;49.564;17.412;2024-03-06T08:57:24;98364.81;;;5.93;100.00
73429;BME280;61643;49.564;17.412;2024-03-06T08:59:52;98379.22;;;5.92;100.00
73429;BME280;61643;49.564;17.412;2024-03-06T09:02:19;98377.03;;;6.01;100.00
73429;BME280;61643;49.564;17.412;2024-03-06T09:04:46;98379.47;;;6.20;100.00
73429;BME280;61643;49.564;17.412;2024-03-06T09:07:12;98380.53;;;6.19;100.00
73429;BME280;61643;49.564;17.412;2024-03-06T09:09:39;98366.28;;;6.25;100.00
73429;BME280;61643;49.564;17.412;2024-03-06T09:12:06;98376.22;;;6.36;100.00
73429;BME280;61643;49.564;17.412;2024-03-06T09:14:32;98375.38;;;6.36;100.00
73429;BME280;61643;49.564;17.412;2024-03-06T09:16:59;98368.13;;;6.25;99.51
73429;BME280;61643;49.564;17.412;2024-03-06T09:19:25;98363.75;;;6.12;100.00
73429;BME280;61643;49.564;17.412;2024-03-06T09:21:51;98386.94;;;6.18;100.00
73429;BME280;61643;49.564;17.412;2024-03-06T09:24:17;98386.22;;;6.23;100.00
73429;BME280;61643;49.564;17.412;2024-03-06T09:26:43;98386.19;;;6.41;99.75
73429;BME280;61643;49.564;17.412;2024-03-06T09:29:10;98391.44;;;6.36;98.19
73429;BME280;61643;49.564;17.412;2024-03-06T09:31:36;98388.44;;;6.26;96.55
73429;BME280;61643;49.564;17.412;2024-03-06T09:34:03;98388.09;;;6.22;97.59
73429;BME280;61643;49.564;17.412;2024-03-06T09:36:29;98387.88;;;6.24;96.46
73429;BME280;61643;49.564;17.412;2024-03-06T09:38:55;98388.91;;;6.23;97.46
73429;BME280;61643;49.564;17.412;2024-03-06T09:41:22;98378.22;;;6.23;96.97
73429;BME280;61643;49.564;17.412;2024-03-06T09:43:48;98388.41;;;6.14;96.83
73429;BME280;61643;49.564;17.412;2024-03-06T09:46:14;98376.81;;;6.02;98.33
73429;BME280;61643;49.564;17.412;2024-03-06T09:48:47;98387.22;;;6.10;98.86
73429;BME280;61643;49.564;17.412;2024-03-06T09:51:14;98389.44;;;6.13;97.76
73429;BME280;61643;49.564;17.412;2024-03-06T09:53:41;98391.22;;;6.01;96.67
73429;BME280;61643;49.564;17.412;2024-03-06T09:56:08;98397.00;;;5.98;97.31
73429;BME280;61643;49.564;17.412;2024-03-06T09:58:37;98391.66;;;5.98;96.55
73429;BME280;61643;49.564;17.412;2024-03-06T10:01:04;98387.72;;;6.01;99.01
73429;BME280;61643;49.564;17.412;2024-03-06T10:03:33;98389.81;;;6.17;97.73
73429;BME280;61643;49.564;17.412;2024-03-06T10:06:00;98387.13;;;6.17;96.85
73429;BME280;61643;49.564;17.412;2024-03-06T10:08:26;98392.03;;;6.20;97.99
73429;BME280;61643;49.564;17.412;2024-03-06T10:10:52;98387.28;;;6.22;95.79
73429;BME280;61643;49.564;17.412;2024-03-06T10:13:22;98392.28;;;6.18;95.19
73429;BME280;61643;49.564;17.412;2024-03-06T10:15:58;98394.91;;;6.36;92.17
73429;BME280;61643;49.564;17.412;2024-03-06T10:18:27;98399.34;;;6.42;92.89
73429;BME280;61643;49.564;17.412;2024-03-06T10:20:53;98388.78;;;6.48;92.98
73429;BME280;61643;49.564;17.412;2024-03-06T10:23:19;98379.56;;;6.62;90.49
73429;BME280;61643;49.564;17.412;2024-03-06T10:25:50;98385.84;;;6.67;88.77
73429;BME280;61643;49.564;17.412;2024-03-06T10:28:20;98383.31;;;6.72;88.83
73429;BME280;61643;49.564;17.412;2024-03-06T10:30:48;98391.72;;;6.76;90.85
73429;BME280;61643;49.564;17.412;2024-03-06T10:33:15;98386.06;;;6.66;90.12
73429;BME280;61643;49.564;17.412;2024-03-06T10:35:43;98379.31;;;6.63;89.94
73429;BME280;61643;49.564;17.412;2024-03-06T10:38:10;98381.94;;;6.81;89.52
73429;BME280;61643;49.564;17.412;2024-03-06T10:40:38;98379.88;;;6.83;89.64
73429;BME280;61643;49.564;17.412;2024-03-06T10:43:05;98379.88;;;6.83;84.75
73429;BME280;61643;49.564;17.412;2024-03-06T10:45:41;98382.19;;;6.91;87.17
73429;BME280;61643;49.564;17.412;2024-03-06T10:48:13;98379.66;;;6.97;88.30
73429;BME280;61643;49.564;17.412;2024-03-06T10:50:40;98378.41;;;7.11;89.42
73429;BME280;61643;49.564;17.412;2024-03-06T10:53:14;98373.63;;;7.13;88.32
73429;BME280;61643;49.564;17.412;2024-03-06T10:55:43;98372.38;;;7.27;88.81
73429;BME280;61643;49.564;17.412;2024-03-06T10:58:10;98377.50;;;7.28;86.28
73429;BME280;61643;49.564;17.412;2024-03-06T11:00:45;98377.25;;;7.41;85.71
73429;BME280;61643;49.564;17.412;2024-03-06T11:03:15;98375.78;;;7.34;86.58
73429;BME280;61643;49.564;17.412;2024-03-06T11:05:43;98359.69;;;7.34;92.65
73429;BME280;61643;49.564;17.412;2024-03-06T11:08:11;98375.88;;;7.51;90.32
73429;BME280;61643;49.564;17.412;2024-03-06T11:10:38;98368.41;;;7.53;86.86
73429;BME280;61643;49.564;17.412;2024-03-06T11:15:47;98374.25;;;7.26;84.15
73429;BME280;61643;49.564;17.412;2024-03-06T11:23:30;98363.31;;;7.39;83.22
73429;BME280;61643;49.564;17.412;2024-03-06T11:26:06;98367.97;;;7.44;84.54
73429;BME280;61643;49.564;17.412;2024-03-06T11:28:34;98362.84;;;7.54;81.36
73429;BME280;61643;49.564;17.412;2024-03-06T11:31:01;98360.41;;;7.41;79.57
73429;BME280;61643;49.564;17.412;2024-03-06T11:33:52;98366.09;;;7.45;80.31
73429;BME280;61643;49.564;17.412;2024-03-06T11:36:26;98364.81;;;7.47;81.83
73429;BME280;61643;49.564;17.412;2024-03-06T11:39:04;98365.03;;;7.57;79.78
73429;BME280;61643;49.564;17.412;2024-03-06T11:41:47;98359.56;;;7.64;79.14
73429;BME280;61643;49.564;17.412;2024-03-06T11:44:18;98356.88;;;7.64;76.94
73429;BME280;61643;49.564;17.412;2024-03-06T11:46:57;98358.53;;;7.65;77.52
73429;BME280;61643;49.564;17.412;2024-03-06T11:49:25;98350.59;;;7.58;77.25
73429;BME280;61643;49.564;17.412;2024-03-06T11:51:56;98355.03;;;7.64;78.30
73429;BME280;61643;49.564;17.412;2024-03-06T11:54:23;98357.22;;;7.67;79.99
73429;BME280;61643;49.564;17.412;2024-03-06T11:56:52;98348.84;;;7.64;81.64
73429;BME280;61643;49.564;17.412;2024-03-06T12:01:56;98349.09;;;7.74;80.22
73429;BME280;61643;49.564;17.412;2024-03-06T12:04:22;98351.44;;;7.70;78.11
73429;BME280;61643;49.564;17.412;2024-03-06T12:06:50;98345.72;;;7.67;79.66
73429;BME280;61643;49.564;17.412;2024-03-06T12:09:16;98353.03;;;7.71;80.25
73429;BME280;61643;49.564;17.412;2024-03-06T12:11:43;98343.59;;;7.69;82.25
73429;BME280;61643;49.564;17.412;2024-03-06T12:14:19;98326.97;;;7.67;82.52
73429;BME280;61643;49.564;17.412;2024-03-06T12:16:58;98344.97;;;7.83;83.72
73429;BME280;61643;49.564;17.412;2024-03-06T12:19:26;98351.72;;;7.85;81.42
73429;BME280;61643;49.564;17.412;2024-03-06T12:21:53;98347.94;;;7.70;78.65
73429;BME280;61643;49.564;17.412;2024-03-06T12:24:19;98334.53;;;7.47;80.57
73429;BME280;61643;49.564;17.412;2024-03-06T12:26:46;98339.91;;;7.58;83.77
73429;BME280;61643;49.564;17.412;2024-03-06T12:29:18;98348.97;;;7.57;82.20
73429;BME280;61643;49.564;17.412;2024-03-06T12:31:47;98339.28;;;7.68;82.29
73429;BME280;61643;49.564;17.412;2024-03-06T12:34:14;98336.75;;;7.61;80.66
73429;BME280;61643;49.564;17.412;2024-03-06T12:36:43;98337.81;;;7.49;80.60
73429;BME280;61643;49.564;17.412;2024-03-06T12:39:09;98340.25;;;7.38;80.35
73429;BME280;61643;49.564;17.412;2024-03-06T12:41:47;98343.63;;;7.34;81.40
73429;BME280;61643;49.564;17.412;2024-03-06T12:44:13;98348.53;;;7.49;83.16
73429;BME280;61643;49.564;17.412;2024-03-06T12:46:41;98346.75;;;7.66;82.84
73429;BME280;61643;49.564;17.412;2024-03-06T12:49:07;98349.22;;;7.44;81.28
73429;BME280;61643;49.564;17.412;2024-03-06T12:51:33;98353.28;;;7.35;79.62
73429;BME280;61643;49.564;17.412;2024-03-06T12:53:59;98347.34;;;7.21;82.23
73429;BME280;61643;49.564;17.412;2024-03-06T12:56:26;98350.03;;;7.33;83.41
73429;BME280;61643;49.564;17.412;2024-03-06T12:58:52;98344.06;;;7.31;80.85
73429;BME280;61643;49.564;17.412;2024-03-06T13:01:18;98350.03;;;7.21;79.83
73429;BME280;61643;49.564;17.412;2024-03-06T13:03:45;98325.00;;;7.16;79.81